Time;durP1;ratioP1;P1;durP2;ratioP2;P2;SDS_P1;SDS_P2;PMS_P1;PMS_P2;Temp;Humidity;BMP_temperature;BMP_pressure;BME280_temperature;BME280_humidity;BME280_pressure;Samples;Min_cycle;Max_cycle;Signal;HPM_P1;HPM_P2
2023/11/14 00:00:31;;;;;;;7.75;2.47;;;14.10;77.70;;;;;;4937224;29;20044;-77
2023/11/14 00:02:57;;;;;;;7.18;2.20;;;14.10;77.70;;;;;;4920189;29;20496;-77
2023/11/14 00:05:23;;;;;;;5.85;2.30;;;14.10;77.70;;;;;;4937326;29;20377;-77
2023/11/14 00:07:49;;;;;;;7.28;2.22;;;14.10;77.70;;;;;;4920442;29;20075;-77
2023/11/14 00:10:15;;;;;;;6.22;2.30;;;14.10;77.70;;;;;;4936947;29;20039;-77
2023/11/14 00:12:41;;;;;;;6.40;2.53;;;14.20;77.80;;;;;;4888407;29;20400;-77
2023/11/14 00:15:07;;;;;;;5.22;2.08;;;14.10;77.70;;;;;;4904633;29;20476;-76
2023/11/14 00:17:34;;;;;;;4.22;1.77;;;14.10;77.70;;;;;;4919819;29;20036;-77
2023/11/14 00:19:59;;;;;;;5.70;2.25;;;14.10;77.70;;;;;;4888422;29;20166;-77
2023/11/14 00:22:25;;;;;;;7.55;2.38;;;14.10;77.70;;;;;;4903724;29;20126;-77
2023/11/14 00:24:52;;;;;;;6.85;2.40;;;14.10;77.70;;;;;;4903836;29;20473;-77
2023/11/14 00:27:17;;;;;;;7.38;2.17;;;14.10;77.70;;;;;;4904085;29;20040;-77
2023/11/14 00:29:43;;;;;;;6.97;2.30;;;14.10;77.70;;;;;;4903384;29;20392;-76
2023/11/14 00:32:09;;;;;;;7.18;2.20;;;14.10;77.70;;;;;;4903619;29;20118;-78
2023/11/14 00:34:35;;;;;;;4.00;1.75;;;14.10;77.70;;;;;;4920044;29;20104;-77
2023/11/14 00:37:01;;;;;;;7.93;2.60;;;14.10;77.70;;;;;;4919440;29;20102;-77
2023/11/14 00:39:27;;;;;;;6.32;2.13;;;14.10;77.70;;;;;;4919436;29;20477;-76
2023/11/14 00:41:53;;;;;;;6.60;2.17;;;14.20;77.80;;;;;;4919291;29;20496;-76
2023/11/14 00:44:20;;;;;;;6.28;2.00;;;14.10;77.70;;;;;;4887961;29;20047;-78
2023/11/14 00:46:47;;;;;;;6.03;2.38;;;14.10;77.70;;;;;;4903838;29;20453;-77
2023/11/14 00:49:14;;;;;;;7.10;2.33;;;14.10;77.70;;;;;;4903758;29;20067;-77
2023/11/14 00:51:40;;;;;;;4.95;1.92;;;14.10;77.80;;;;;;4919270;29;20106;-77
2023/11/14 00:54:05;;;;;;;5.50;2.65;;;14.10;77.70;;;;;;4935976;29;20047;-77
2023/11/14 00:56:31;;;;;;;8.68;2.45;;;14.20;77.80;;;;;;4919980;29;20126;-77
2023/11/14 00:58:57;;;;;;;7.00;2.17;;;14.10;77.70;;;;;;4919081;29;20508;-77
2023/11/14 01:01:23;;;;;;;6.80;2.10;;;14.20;77.80;;;;;;4922212;29;20095;-77
2023/11/14 01:03:48;;;;;;;4.57;1.88;;;14.10;77.70;;;;;;4922427;29;20052;-77
2023/11/14 01:06:14;;;;;;;9.15;2.10;;;14.10;77.70;;;;;;4922380;29;20046;-77
2023/11/14 01:08:40;;;;;;;6.38;2.20;;;14.10;77.70;;;;;;4938536;29;20039;-76
2023/11/14 01:11:06;;;;;;;6.57;2.35;;;14.10;77.70;;;;;;4921564;29;20036;-77
2023/11/14 01:13:31;;;;;;;6.57;2.20;;;14.10;77.70;;;;;;4906060;29;20473;-77
2023/11/14 01:15:58;;;;;;;6.13;2.10;;;14.10;77.70;;;;;;4905674;29;20036;-77
2023/11/14 01:18:23;;;;;;;4.50;2.00;;;14.10;77.70;;;;;;4905800;29;20039;-77
2023/11/14 01:20:49;;;;;;;5.65;2.13;;;14.20;77.80;;;;;;4905955;29;20036;-77
2023/11/14 01:23:16;;;;;;;6.35;2.38;;;14.20;77.80;;;;;;4921083;29;20103;-78
2023/11/14 01:25:43;;;;;;;6.22;2.03;;;14.20;77.80;;;;;;4905964;29;20446;-78
2023/11/14 01:28:09;;;;;;;6.65;2.28;;;14.20;77.80;;;;;;4905714;29;20046;-77
2023/11/14 01:30:34;;;;;;;7.43;2.15;;;14.20;77.80;;;;;;4922035;29;20047;-76
2023/11/14 01:33:00;;;;;;;8.70;2.40;;;14.20;77.80;;;;;;4906364;29;20070;-76
2023/11/14 01:35:26;;;;;;;7.22;2.28;;;14.20;78.40;;;;;;4905528;29;20036;-77
2023/11/14 01:37:51;;;;;;;7.88;2.38;;;14.20;77.80;;;;;;4905435;29;20035;-78
2023/11/14 01:40:18;;;;;;;5.95;2.15;;;14.20;77.70;;;;;;4890855;29;20058;-76
2023/11/14 01:42:44;;;;;;;8.77;2.65;;;14.20;77.70;;;;;;4905316;29;20043;-77
2023/11/14 01:45:12;;;;;;;7.55;2.60;;;14.20;77.80;;;;;;4921098;29;20051;-77
2023/11/14 01:47:39;;;;;;;4.78;2.03;;;14.20;77.80;;;;;;4921337;29;20036;-77
2023/11/14 01:50:07;;;;;;;7.38;2.22;;;14.20;77.80;;;;;;4905876;29;20063;-76
2023/11/14 01:52:34;;;;;;;4.85;1.98;;;14.20;77.80;;;;;;4921800;29;20491;-76
2023/11/14 01:55:00;;;;;;;8.60;2.65;;;14.20;77.80;;;;;;4921112;29;20032;-76
2023/11/14 01:57:25;;;;;;;6.32;2.20;;;14.20;77.80;;;;;;4920821;29;20032;-76
2023/11/14 01:59:52;;;;;;;6.55;2.33;;;14.20;77.80;;;;;;4904832;29;20079;-76
2023/11/14 02:02:18;;;;;;;6.55;2.15;;;14.20;77.80;;;;;;4889477;29;20031;-77
2023/11/14 02:04:46;;;;;;;7.53;2.20;;;14.20;77.80;;;;;;4899911;29;1127265;-77
2023/11/14 02:07:12;;;;;;;5.95;2.08;;;14.20;77.80;;;;;;4890710;29;20040;-77
2023/11/14 02:09:38;;;;;;;6.68;1.92;;;14.20;77.80;;;;;;4921857;29;20460;-76
2023/11/14 02:12:04;;;;;;;8.90;2.78;;;14.20;77.80;;;;;;4905575;29;20135;-76
2023/11/14 02:14:31;;;;;;;7.47;2.58;;;14.20;77.80;;;;;;4906150;29;20066;-76
2023/11/14 02:16:57;;;;;;;8.43;2.90;;;14.20;77.80;;;;;;4906012;29;20063;-76
2023/11/14 02:19:23;;;;;;;6.20;2.22;;;14.20;77.70;;;;;;4905996;29;20118;-76
2023/11/14 02:21:50;;;;;;;6.20;2.00;;;14.20;77.70;;;;;;4906602;29;20444;-76
2023/11/14 02:24:18;;;;;;;8.45;2.70;;;14.20;77.70;;;;;;4921533;29;20032;-77
2023/11/14 02:26:46;;;;;;;6.63;2.17;;;14.20;77.70;;;;;;4905760;29;20396;-76
2023/11/14 02:29:16;;;;;;;6.22;2.47;;;14.20;77.80;;;;;;4938558;29;20095;-76
2023/11/14 02:31:42;;;;;;;7.40;2.45;;;14.20;77.80;;;;;;4938357;29;20504;-76
2023/11/14 02:34:08;;;;;;;6.05;2.47;;;14.20;77.70;;;;;;4905528;29;20040;-76
2023/11/14 02:36:34;;;;;;;7.07;2.55;;;14.20;77.70;;;;;;4890172;29;20036;-76
2023/11/14 02:38:59;;;;;;;7.65;2.15;;;14.20;77.70;;;;;;4890029;29;20126;-76
2023/11/14 02:41:25;;;;;;;5.75;2.50;;;14.30;77.80;;;;;;4921417;29;20068;-76
2023/11/14 02:43:51;;;;;;;7.82;2.47;;;14.20;77.70;;;;;;4905586;29;20126;-77
2023/11/14 02:46:18;;;;;;;5.47;1.90;;;14.30;77.80;;;;;;4905681;29;20027;-76
2023/11/14 02:48:44;;;;;;;5.60;2.08;;;14.30;77.80;;;;;;4921327;29;20124;-76
2023/11/14 02:51:10;;;;;;;7.38;2.35;;;14.30;77.80;;;;;;4905575;29;20126;-76
2023/11/14 02:53:36;;;;;;;8.38;2.65;;;14.20;77.70;;;;;;4920935;29;20063;-76
2023/11/14 02:56:01;;;;;;;7.40;2.67;;;14.30;77.80;;;;;;4890129;29;20031;-76
2023/11/14 02:58:27;;;;;;;9.80;2.58;;;14.30;77.80;;;;;;4920715;29;20038;-76
2023/11/14 03:00:53;;;;;;;5.15;2.08;;;14.30;77.80;;;;;;4938251;29;20492;-76
2023/11/14 03:03:19;;;;;;;8.02;2.70;;;14.30;77.80;;;;;;4904838;29;20078;-76
2023/11/14 03:05:45;;;;;;;6.32;2.05;;;14.30;77.80;;;;;;4889559;29;20035;-76
2023/11/14 03:08:12;;;;;;;9.35;2.60;;;14.30;77.80;;;;;;4938271;29;20031;-76
2023/11/14 03:10:38;;;;;;;7.90;2.63;;;14.30;77.80;;;;;;4904918;29;20512;-76
2023/11/14 03:13:04;;;;;;;8.13;2.13;;;14.30;77.80;;;;;;4920766;29;20441;-76
2023/11/14 03:15:31;;;;;;;5.97;2.38;;;14.30;77.80;;;;;;4904884;29;20063;-76
2023/11/14 03:17:58;;;;;;;6.70;2.53;;;14.30;77.70;;;;;;4920811;29;20035;-76
2023/11/14 03:20:25;;;;;;;5.53;2.30;;;14.30;77.80;;;;;;4937693;29;20069;-76
2023/11/14 03:22:50;;;;;;;6.57;2.13;;;14.30;77.80;;;;;;4937002;29;20043;-76
2023/11/14 03:25:16;;;;;;;8.68;2.90;;;14.30;77.70;;;;;;4938048;29;20422;-75
2023/11/14 03:27:42;;;;;;;5.32;2.30;;;14.30;77.70;;;;;;4904660;29;20395;-76
2023/11/14 03:30:09;;;;;;;7.97;2.45;;;14.30;77.80;;;;;;4905069;29;20087;-76
2023/11/14 03:32:35;;;;;;;6.55;2.20;;;14.30;77.70;;;;;;4920887;29;20133;-76
2023/11/14 03:35:02;;;;;;;6.60;2.25;;;14.30;77.70;;;;;;4920905;29;20056;-77
2023/11/14 03:37:28;;;;;;;7.13;2.05;;;14.30;77.70;;;;;;4920502;29;20040;-76
2023/11/14 03:39:53;;;;;;;8.07;2.40;;;14.30;77.80;;;;;;4920137;29;20560;-76
2023/11/14 03:42:19;;;;;;;4.85;2.10;;;14.30;77.70;;;;;;4888998;29;20066;-76
2023/11/14 03:44:45;;;;;;;7.30;2.50;;;14.30;77.70;;;;;;4904352;29;20612;-76
2023/11/14 03:47:11;;;;;;;6.35;2.08;;;14.30;77.80;;;;;;4919989;29;20082;-76
2023/11/14 03:49:36;;;;;;;4.78;2.08;;;14.30;77.80;;;;;;4920213;29;20087;-76
2023/11/14 03:52:02;;;;;;;6.22;2.17;;;14.30;77.70;;;;;;4936804;29;20039;-77
2023/11/14 03:54:28;;;;;;;6.50;2.30;;;14.30;77.80;;;;;;4889126;29;20043;-76
2023/11/14 03:56:54;;;;;;;6.03;2.03;;;14.30;77.80;;;;;;4919859;29;20130;-76
2023/11/14 03:59:21;;;;;;;9.38;2.67;;;14.30;77.70;;;;;;4904277;29;20106;-77
2023/11/14 04:01:47;;;;;;;8.25;2.35;;;14.30;77.70;;;;;;4936877;29;20091;-76
2023/11/14 04:04:13;;;;;;;4.97;2.00;;;14.40;77.80;;;;;;4900631;29;20052;-76
2023/11/14 04:06:39;;;;;;;6.65;2.17;;;14.40;77.80;;;;;;4900930;29;20044;-76
2023/11/14 04:09:05;;;;;;;6.45;2.22;;;14.30;77.70;;;;;;4917557;29;20040;-76
2023/11/14 04:11:31;;;;;;;6.72;2.47;;;14.40;77.80;;;;;;4917620;29;20092;-76
2023/11/14 04:13:57;;;;;;;6.93;2.45;;;14.40;77.70;;;;;;4900903;29;20421;-76
2023/11/14 04:16:23;;;;;;;9.02;2.55;;;14.40;77.80;;;;;;4900783;29;20465;-77
2023/11/14 04:18:49;;;;;;;7.95;2.45;;;14.40;77.70;;;;;;4917763;29;20036;-76
2023/11/14 04:21:19;;;;;;;6.07;2.33;;;14.40;77.70;;;;;;4916513;29;20040;-76
2023/11/14 04:23:46;;;;;;;5.43;1.98;;;14.40;77.70;;;;;;4916556;29;20032;-76
2023/11/14 04:26:14;;;;;;;4.18;1.90;;;14.40;77.70;;;;;;4916434;29;20040;-76
2023/11/14 04:28:42;;;;;;;8.13;2.35;;;14.40;77.70;;;;;;4901028;29;20085;-77
2023/11/14 04:31:08;;;;;;;7.22;2.40;;;14.40;77.70;;;;;;4916320;29;20040;-76
2023/11/14 04:33:34;;;;;;;3.92;1.88;;;14.40;77.70;;;;;;4931931;29;20119;-77
2023/11/14 04:36:00;;;;;;;6.40;2.20;;;14.40;77.70;;;;;;4900878;29;20040;-77
2023/11/14 04:38:27;;;;;;;5.78;2.00;;;14.40;77.70;;;;;;4885206;29;20079;-77
2023/11/14 04:40:54;;;;;;;6.03;2.00;;;14.40;77.70;;;;;;4916457;29;20036;-77
2023/11/14 04:43:20;;;;;;;7.38;2.22;;;14.40;77.70;;;;;;4916098;29;20517;-76
2023/11/14 04:45:46;;;;;;;6.90;2.08;;;14.40;77.70;;;;;;4915963;29;20040;-76
2023/11/14 04:48:13;;;;;;;6.35;1.88;;;14.40;77.70;;;;;;4916744;29;20039;-76
2023/11/14 04:50:38;;;;;;;5.60;1.95;;;14.40;78.30;;;;;;4900551;29;20028;-76
2023/11/14 04:53:04;;;;;;;6.55;2.30;;;14.40;77.70;;;;;;4900353;29;20421;-76
2023/11/14 04:55:30;;;;;;;5.47;2.13;;;14.50;77.80;;;;;;4915988;29;20036;-77
2023/11/14 04:57:56;;;;;;;7.70;2.25;;;14.50;77.80;;;;;;4900984;29;20123;-77
2023/11/14 05:00:21;;;;;;;6.55;2.03;;;14.50;77.70;;;;;;4915795;29;20040;-76
2023/11/14 05:02:47;;;;;;;6.00;2.17;;;14.50;77.80;;;;;;4900974;29;20051;-76
2023/11/14 05:05:13;;;;;;;8.57;2.45;;;14.50;77.80;;;;;;4884825;29;20059;-76
2023/11/14 05:07:41;;;;;;;6.20;2.33;;;14.40;77.70;;;;;;4900236;29;20036;-76
2023/11/14 05:10:09;;;;;;;7.35;2.53;;;14.50;77.80;;;;;;4885794;29;20403;-77
2023/11/14 05:12:34;;;;;;;4.60;1.77;;;14.50;77.80;;;;;;4915937;29;20044;-76
2023/11/14 05:15:01;;;;;;;7.55;2.53;;;14.50;77.70;;;;;;4915736;29;20032;-76
2023/11/14 05:17:26;;;;;;;6.35;2.17;;;14.50;77.80;;;;;;4900357;29;20028;-77
2023/11/14 05:19:54;;;;;;;8.93;2.25;;;14.50;77.70;;;;;;4884664;29;20130;-76
2023/11/14 05:22:20;;;;;;;6.82;2.00;;;14.50;77.80;;;;;;4900056;29;20056;-77
2023/11/14 05:24:46;;;;;;;5.53;1.90;;;14.40;77.70;;;;;;4900296;29;20064;-77
2023/11/14 05:27:12;;;;;;;5.72;1.88;;;14.50;77.80;;;;;;4915920;29;20040;-77
2023/11/14 05:29:38;;;;;;;5.55;1.92;;;14.50;77.80;;;;;;4900496;29;20035;-77
2023/11/14 05:32:04;;;;;;;7.90;2.40;;;14.50;77.70;;;;;;4900508;29;20111;-77
2023/11/14 05:34:30;;;;;;;8.63;2.33;;;14.50;77.70;;;;;;4931109;29;20033;-77
2023/11/14 05:36:56;;;;;;;5.15;1.85;;;14.50;77.70;;;;;;4885025;29;20096;-77
2023/11/14 05:39:21;;;;;;;8.02;2.40;;;14.50;77.70;;;;;;4868813;29;20040;-77
2023/11/14 05:41:47;;;;;;;5.82;2.28;;;14.50;77.70;;;;;;4916252;29;20540;-75
2023/11/14 05:44:14;;;;;;;9.38;2.60;;;14.50;77.70;;;;;;4899720;29;20048;-76
2023/11/14 05:46:40;;;;;;;7.30;2.22;;;14.50;77.70;;;;;;4916395;29;20024;-76
2023/11/14 05:49:06;;;;;;;9.60;3.20;;;14.50;77.70;;;;;;4903697;29;20042;-75
2023/11/14 05:51:32;;;;;;;6.97;2.20;;;14.50;77.70;;;;;;4903761;29;20126;-76
2023/11/14 05:53:59;;;;;;;7.18;2.30;;;14.50;77.70;;;;;;4903296;29;20120;-76
2023/11/14 05:56:24;;;;;;;7.07;2.58;;;14.50;77.70;;;;;;4920144;29;20040;-77
2023/11/14 05:58:50;;;;;;;8.13;2.50;;;14.50;77.70;;;;;;4902965;29;20033;-77
2023/11/14 06:01:16;;;;;;;7.10;2.30;;;14.50;77.70;;;;;;4918494;29;20032;-79
2023/11/14 06:03:42;;;;;;;6.88;2.40;;;14.50;77.70;;;;;;4902923;29;20496;-78
2023/11/14 06:06:08;;;;;;;6.72;2.38;;;14.60;77.70;;;;;;4888299;29;20048;-78
2023/11/14 06:08:33;;;;;;;5.18;1.90;;;14.60;77.70;;;;;;4903064;29;20123;-77
2023/11/14 06:11:00;;;;;;;8.70;2.13;;;14.60;77.70;;;;;;4918547;29;20040;-77
2023/11/14 06:13:25;;;;;;;7.43;2.65;;;14.60;77.70;;;;;;4918467;29;20437;-77
2023/11/14 06:15:52;;;;;;;6.03;2.22;;;14.60;77.70;;;;;;4918256;29;20039;-78
2023/11/14 06:18:18;;;;;;;5.80;2.13;;;14.50;77.60;;;;;;4918097;29;20040;-80
2023/11/14 06:20:43;;;;;;;6.60;2.05;;;14.50;77.60;;;;;;4918259;29;20043;-77
2023/11/14 06:23:09;;;;;;;7.40;2.08;;;14.60;77.70;;;;;;4917931;29;20477;-77
2023/11/14 06:25:35;;;;;;;8.48;2.53;;;14.60;77.70;;;;;;4918553;29;20055;-77
2023/11/14 06:28:00;;;;;;;7.13;2.28;;;14.60;77.70;;;;;;4902566;29;20047;-76
2023/11/14 06:30:26;;;;;;;6.35;2.20;;;14.60;77.70;;;;;;4919033;29;20032;-77
2023/11/14 06:32:52;;;;;;;7.63;2.20;;;14.60;77.70;;;;;;4919794;29;20366;-77
2023/11/14 06:35:17;;;;;;;8.50;3.03;;;14.60;77.60;;;;;;4919070;29;20040;-79
2023/11/14 06:37:44;;;;;;;8.02;2.50;;;14.60;77.60;;;;;;4886929;29;20036;-76
2023/11/14 06:40:11;;;;;;;6.45;2.30;;;14.60;77.60;;;;;;4918539;29;20492;-76
2023/11/14 06:42:38;;;;;;;6.38;2.35;;;14.60;77.70;;;;;;4918426;29;20103;-76
2023/11/14 06:45:07;;;;;;;5.70;1.77;;;14.60;77.60;;;;;;4903178;29;20040;-76
2023/11/14 06:47:33;;;;;;;7.30;2.33;;;14.60;77.70;;;;;;4902466;29;20152;-77
2023/11/14 06:49:59;;;;;;;7.25;2.90;;;14.60;77.60;;;;;;4918897;29;20060;-77
2023/11/14 06:52:24;;;;;;;5.90;2.08;;;14.60;77.60;;;;;;4918719;29;20366;-76
2023/11/14 06:54:50;;;;;;;6.50;1.95;;;14.60;77.60;;;;;;4903046;29;20040;-77
2023/11/14 06:57:16;;;;;;;6.63;2.35;;;14.60;77.60;;;;;;4918460;29;20036;-76
2023/11/14 06:59:41;;;;;;;5.78;1.95;;;14.60;77.60;;;;;;4902259;29;20465;-77
2023/11/14 07:02:08;;;;;;;6.95;2.30;;;14.60;77.60;;;;;;4918224;29;20359;-76
2023/11/14 07:04:37;;;;;;;7.20;2.25;;;14.60;77.60;;;;;;4901831;29;20083;-78
2023/11/14 07:07:04;;;;;;;7.22;2.03;;;14.60;77.60;;;;;;4886736;29;20043;-76
2023/11/14 07:09:31;;;;;;;6.97;1.77;;;14.60;77.60;;;;;;4918762;29;20115;-75
2023/11/14 07:11:57;;;;;;;6.72;2.13;;;14.60;77.60;;;;;;4917451;29;20083;-76
2023/11/14 07:14:24;;;;;;;6.88;2.53;;;14.60;77.60;;;;;;4919129;29;20036;-76
2023/11/14 07:16:50;;;;;;;5.03;2.15;;;14.70;77.70;;;;;;4886682;29;20032;-78
2023/11/14 07:19:16;;;;;;;4.88;2.08;;;14.70;77.70;;;;;;4917852;29;20032;-77
2023/11/14 07:21:45;;;;;;;7.63;2.17;;;14.70;77.70;;;;;;4917452;29;20487;-76
2023/11/14 07:24:11;;;;;;;6.55;2.35;;;14.60;77.60;;;;;;4917476;29;20099;-76
2023/11/14 07:26:37;;;;;;;5.28;2.20;;;14.60;77.60;;;;;;4917723;29;20035;-76
2023/11/14 07:29:04;;;;;;;6.95;2.08;;;14.70;77.70;;;;;;4901526;29;20140;-76
2023/11/14 07:31:33;;;;;;;6.05;1.85;;;14.60;77.60;;;;;;4918135;29;20064;-76
2023/11/14 07:33:58;;;;;;;5.07;2.03;;;14.70;77.70;;;;;;4918213;29;20396;-75
2023/11/14 07:36:24;;;;;;;4.93;1.75;;;14.70;77.60;;;;;;4870571;29;20042;-76
2023/11/14 07:38:50;;;;;;;3.55;1.70;;;14.70;77.70;;;;;;4901732;29;20060;-76
2023/11/14 07:41:17;;;;;;;5.90;2.20;;;14.70;77.60;;;;;;4901328;29;20119;-76
2023/11/14 07:43:43;;;;;;;7.40;2.30;;;14.70;77.60;;;;;;4901596;29;20040;-78
2023/11/14 07:46:09;;;;;;;7.47;2.22;;;14.70;77.70;;;;;;4917014;29;20046;-80
2023/11/14 07:48:35;;;;;;;6.85;2.80;;;14.70;77.70;;;;;;4917024;29;20454;-78
2023/11/14 07:51:05;;;;;;;6.90;2.40;;;14.70;77.70;;;;;;4870260;29;20416;-78
2023/11/14 07:53:30;;;;;;;7.38;2.50;;;14.70;77.70;;;;;;4901928;29;20448;-78
2023/11/14 07:55:56;;;;;;;6.75;2.70;;;14.70;77.60;;;;;;4870442;29;20032;-78
2023/11/14 07:58:25;;;;;;;7.13;2.17;;;14.70;77.70;;;;;;4901506;29;20040;-78
2023/11/14 08:00:52;;;;;;;6.03;1.92;;;14.70;77.70;;;;;;4901706;29;20094;-79
2023/11/14 08:03:18;;;;;;;8.57;2.20;;;14.70;77.70;;;;;;4917500;29;20130;-78
2023/11/14 08:05:44;;;;;;;6.75;2.10;;;14.70;77.70;;;;;;4919904;29;20086;-78
2023/11/14 08:08:10;;;;;;;5.32;2.15;;;14.70;77.60;;;;;;4920402;29;20036;-78
2023/11/14 08:10:39;;;;;;;7.90;2.88;;;14.70;77.60;;;;;;4936209;29;20032;-78
2023/11/14 08:13:05;;;;;;;8.93;2.72;;;14.70;77.70;;;;;;4904059;29;20186;-78
2023/11/14 08:15:31;;;;;;;6.68;2.05;;;14.70;77.60;;;;;;4904276;29;20035;-80
2023/11/14 08:17:57;;;;;;;5.32;2.25;;;14.70;77.60;;;;;;4919368;29;20415;-77
2023/11/14 08:20:23;;;;;;;6.90;2.22;;;14.70;77.60;;;;;;4904044;29;20123;-78
2023/11/14 08:22:50;;;;;;;5.78;2.03;;;14.70;77.60;;;;;;4903614;29;20063;-78
2023/11/14 08:25:16;;;;;;;5.50;2.35;;;14.70;77.60;;;;;;4904643;29;20028;-77
2023/11/14 08:27:45;;;;;;;7.07;2.15;;;14.70;77.60;;;;;;4919517;29;20027;-77
2023/11/14 08:30:12;;;;;;;5.70;1.90;;;14.70;77.60;;;;;;4904019;29;20035;-78
2023/11/14 08:32:39;;;;;;;6.50;2.00;;;14.70;77.60;;;;;;4919408;29;20042;-77
2023/11/14 08:35:07;;;;;;;7.07;2.30;;;14.70;77.60;;;;;;4904460;29;20441;-76
2023/11/14 08:37:32;;;;;;;5.03;2.05;;;14.70;77.60;;;;;;4904433;29;20027;-75
2023/11/14 08:39:58;;;;;;;6.38;2.38;;;14.70;77.70;;;;;;4903837;29;20116;-76
2023/11/14 08:42:24;;;;;;;6.88;2.22;;;14.70;77.60;;;;;;4919242;29;20028;-76
2023/11/14 08:44:50;;;;;;;7.53;2.33;;;14.70;77.60;;;;;;4903677;29;20035;-76
2023/11/14 08:47:16;;;;;;;6.78;2.47;;;14.70;77.60;;;;;;4888036;29;20127;-76
2023/11/14 08:49:42;;;;;;;5.78;1.88;;;14.70;77.70;;;;;;4888271;29;20032;-76
2023/11/14 08:52:07;;;;;;;7.28;2.00;;;14.70;77.60;;;;;;4919557;29;20465;-76
2023/11/14 08:54:33;;;;;;;6.20;1.80;;;14.70;77.60;;;;;;4888204;29;20046;-76
2023/11/14 08:56:59;;;;;;;5.82;1.92;;;14.70;77.60;;;;;;4935962;29;20074;-76
2023/11/14 08:59:25;;;;;;;6.10;2.08;;;14.70;77.60;;;;;;4903435;29;20095;-75
2023/11/14 09:01:51;;;;;;;6.18;2.22;;;14.70;77.60;;;;;;4903499;29;20058;-77
2023/11/14 09:04:18;;;;;;;7.22;2.35;;;14.80;77.70;;;;;;4903390;29;20106;-76
2023/11/14 09:06:44;;;;;;;4.28;1.88;;;14.80;77.70;;;;;;4903445;29;20499;-76
2023/11/14 09:09:10;;;;;;;5.57;2.05;;;14.80;77.70;;;;;;4919026;29;20074;-75
2023/11/14 09:11:36;;;;;;;7.05;2.40;;;14.80;77.70;;;;;;4903384;29;20077;-76
2023/11/14 09:14:02;;;;;;;8.02;2.00;;;14.80;77.70;;;;;;4903631;29;20484;-75
2023/11/14 09:16:28;;;;;;;5.45;2.13;;;14.80;77.70;;;;;;4918936;29;20032;-76
2023/11/14 09:18:54;;;;;;;5.70;2.15;;;14.80;77.70;;;;;;4919210;29;20488;-76
2023/11/14 09:21:21;;;;;;;6.50;2.47;;;14.80;77.70;;;;;;4919739;29;20035;-76
2023/11/14 09:23:46;;;;;;;5.85;2.50;;;14.80;77.70;;;;;;4940221;29;20166;-76
2023/11/14 09:26:13;;;;;;;5.68;2.08;;;14.80;77.60;;;;;;4907062;29;20122;-76
2023/11/14 09:28:39;;;;;;;7.68;2.85;;;14.80;77.70;;;;;;4939465;29;20036;-76
2023/11/14 09:31:06;;;;;;;9.30;2.50;;;14.80;77.60;;;;;;4922726;29;20035;-75
2023/11/14 09:33:38;;;;;;;7.05;2.28;;;14.80;77.70;;;;;;4907129;29;20079;-75
2023/11/14 09:36:04;;;;;;;6.07;2.20;;;14.80;77.60;;;;;;4907706;29;20055;-75
2023/11/14 09:38:31;;;;;;;5.38;2.20;;;14.80;77.60;;;;;;4891371;29;20113;-75
2023/11/14 09:40:59;;;;;;;8.30;2.67;;;14.80;77.70;;;;;;4906767;29;20042;-75
2023/11/14 09:43:25;;;;;;;5.57;2.05;;;14.80;77.60;;;;;;4922696;29;20110;-76
2023/11/14 09:45:52;;;;;;;6.82;2.22;;;14.80;77.70;;;;;;4922351;29;20038;-76
2023/11/14 09:48:18;;;;;;;5.80;2.20;;;14.80;77.70;;;;;;4921996;29;20075;-76
2023/11/14 09:50:47;;;;;;;6.68;2.05;;;14.90;77.80;;;;;;4922764;29;20409;-76
2023/11/14 09:53:13;;;;;;;6.00;2.30;;;14.90;78.40;;;;;;4906557;29;20110;-75
2023/11/14 09:55:40;;;;;;;4.43;1.90;;;14.90;77.70;;;;;;4906478;29;20396;-76
2023/11/14 09:58:06;;;;;;;5.18;1.90;;;14.90;77.70;;;;;;4922628;29;20055;-76
2023/11/14 10:00:33;;;;;;;5.40;2.22;;;14.90;77.70;;;;;;4890922;29;20047;-75
2023/11/14 10:03:03;;;;;;;7.20;2.20;;;14.90;77.80;;;;;;4922490;29;20052;-76
2023/11/14 10:05:30;;;;;;;10.95;2.88;;;14.90;77.80;;;;;;4903103;29;20540;-76
2023/11/14 10:07:56;;;;;;;7.88;2.05;;;15.00;77.80;;;;;;4920272;29;20495;-75
2023/11/14 10:10:22;;;;;;;5.40;2.00;;;15.00;77.80;;;;;;4919131;29;20036;-75
2023/11/14 10:12:49;;;;;;;6.30;2.33;;;15.00;77.80;;;;;;4918740;29;20035;-76
2023/11/14 10:15:28;;;;;;;4.60;2.13;;;15.00;77.80;;;;;;4919659;29;20466;-75
2023/11/14 10:17:55;;;;;;;5.57;1.85;;;15.00;77.80;;;;;;4919391;29;20043;-76
2023/11/14 10:20:21;;;;;;;7.82;2.30;;;15.00;77.70;;;;;;4902944;29;20397;-76
2023/11/14 10:22:54;;;;;;;8.52;2.53;;;15.00;77.70;;;;;;4918258;29;20473;-76
2023/11/14 10:25:39;;;;;;;5.40;2.15;;;15.00;77.70;;;;;;4918999;29;20032;-76
2023/11/14 10:28:06;;;;;;;5.70;2.28;;;15.00;77.70;;;;;;4903035;29;20040;-75
2023/11/14 10:30:48;;;;;;;6.97;2.30;;;15.00;77.60;;;;;;4919172;29;20040;-75
2023/11/14 10:33:15;;;;;;;5.95;2.10;;;15.10;77.70;;;;;;4919155;29;20486;-76
2023/11/14 10:35:41;;;;;;;6.15;2.25;;;15.10;77.60;;;;;;4919340;29;20074;-76
2023/11/14 10:38:25;;;;;;;6.03;2.20;;;15.10;77.60;;;;;;4918239;29;20040;-75
2023/11/14 10:40:54;;;;;;;3.83;2.00;;;15.10;77.60;;;;;;4902800;29;20134;-76
2023/11/14 10:43:36;;;;;;;4.70;2.03;;;15.20;77.60;;;;;;4917955;29;20401;-76
2023/11/14 10:46:11;;;;;;;6.25;2.13;;;15.20;77.70;;;;;;4903332;29;20068;-76
2023/11/14 10:48:37;;;;;;;4.95;2.25;;;15.20;77.60;;;;;;4918957;29;20426;-75
2023/11/14 10:51:04;;;;;;;4.75;2.00;;;15.20;77.50;;;;;;4903152;29;20064;-76
2023/11/14 10:53:30;;;;;;;6.70;2.05;;;15.20;77.50;;;;;;4917796;29;20087;-76
2023/11/14 10:55:56;;;;;;;6.78;2.20;;;15.30;77.50;;;;;;4917993;29;20032;-76
2023/11/14 10:58:23;;;;;;;7.13;2.17;;;15.30;77.50;;;;;;4902353;29;20152;-75
2023/11/14 11:00:51;;;;;;;6.53;2.42;;;15.30;77.50;;;;;;4918007;29;20380;-76
2023/11/14 11:03:17;;;;;;;4.78;2.00;;;15.30;77.50;;;;;;4917975;29;20053;-76
2023/11/14 11:05:43;;;;;;;5.80;2.15;;;15.30;77.50;;;;;;4918369;29;20048;-76
2023/11/14 11:08:12;;;;;;;5.10;2.00;;;15.40;78.10;;;;;;4902232;29;20473;-75
2023/11/14 11:10:39;;;;;;;5.63;2.00;;;15.40;77.40;;;;;;4918625;29;20473;-76
2023/11/14 11:13:16;;;;;;;7.60;2.40;;;15.40;77.40;;;;;;4918853;29;20043;-75
2023/11/14 11:15:47;;;;;;;5.43;2.15;;;15.40;77.40;;;;;;4918935;29;20034;-76
2023/11/14 11:18:13;;;;;;;4.95;2.00;;;15.40;77.40;;;;;;4887238;29;20032;-76
2023/11/14 11:20:39;;;;;;;6.50;2.25;;;15.50;77.40;;;;;;4917536;29;20039;-76
2023/11/14 11:23:10;;;;;;;6.53;2.30;;;15.40;77.30;;;;;;4917181;29;20052;-76
2023/11/14 11:25:37;;;;;;;5.35;2.40;;;15.50;77.30;;;;;;4918481;29;20054;-76
2023/11/14 11:28:27;;;;;;;5.43;2.25;;;15.50;77.30;;;;;;4917184;29;20024;-75
2023/11/14 11:31:13;;;;;;;5.38;2.08;;;15.50;77.40;;;;;;4917563;29;20480;-75
2023/11/14 11:33:42;;;;;;;6.55;2.17;;;15.50;77.30;;;;;;4919175;29;20032;-76
2023/11/14 11:36:26;;;;;;;5.03;1.92;;;15.50;77.30;;;;;;4917541;29;20043;-77
2023/11/14 11:39:05;;;;;;;6.38;2.20;;;15.60;77.40;;;;;;4918689;29;20103;-76
2023/11/14 11:41:34;;;;;;;5.00;2.10;;;15.60;77.30;;;;;;4902818;29;20079;-76
2023/11/14 11:44:18;;;;;;;4.53;2.10;;;15.60;77.30;;;;;;4916175;29;20036;-76
2023/11/14 11:46:47;;;;;;;3.13;1.85;;;15.60;77.30;;;;;;4918583;29;20036;-76
2023/11/14 11:49:22;;;;;;;4.65;1.70;;;15.60;77.30;;;;;;4917920;29;20087;-75
2023/11/14 11:51:48;;;;;;;5.60;2.00;;;15.60;77.30;;;;;;4917761;29;20040;-77
2023/11/14 11:54:26;;;;;;;6.13;2.22;;;15.60;77.30;;;;;;4901087;29;20047;-76
2023/11/14 11:57:04;;;;;;;5.40;2.25;;;15.60;77.30;;;;;;4901098;29;20099;-76
2023/11/14 11:59:53;;;;;;;6.13;1.83;;;15.60;77.30;;;;;;4901197;29;20039;-76
2023/11/14 12:02:23;;;;;;;6.03;1.90;;;15.60;77.30;;;;;;4889483;29;20059;-75
2023/11/14 12:04:52;;;;;;;4.47;2.03;;;15.60;77.30;;;;;;4901187;29;20188;-76
2023/11/14 12:07:18;;;;;;;4.78;1.90;;;15.60;77.30;;;;;;4918167;29;20044;-76
2023/11/14 12:09:46;;;;;;;4.38;2.22;;;15.60;77.30;;;;;;4901138;29;20083;-76
2023/11/14 12:12:15;;;;;;;4.45;2.05;;;15.60;77.30;;;;;;4901856;29;20145;-76
2023/11/14 12:14:41;;;;;;;5.03;2.30;;;15.70;77.40;;;;;;4901176;29;20635;-76
2023/11/14 12:17:07;;;;;;;6.55;2.17;;;15.60;77.30;;;;;;4917114;29;20040;-75
2023/11/14 12:19:34;;;;;;;4.15;1.73;;;15.60;77.30;;;;;;4900619;29;20110;-76
2023/11/14 12:22:01;;;;;;;4.78;2.20;;;15.70;77.30;;;;;;4885552;29;20036;-76
2023/11/14 12:24:26;;;;;;;5.00;2.15;;;15.70;77.30;;;;;;4916342;29;20047;-77
2023/11/14 12:26:52;;;;;;;5.88;2.20;;;15.70;77.30;;;;;;4916395;29;20469;-75
2023/11/14 12:29:19;;;;;;;5.20;2.00;;;15.70;77.30;;;;;;4917877;29;20481;-76
2023/11/14 12:31:46;;;;;;;5.40;1.88;;;15.70;77.30;;;;;;4916339;29;20032;-76
2023/11/14 12:34:22;;;;;;;3.95;1.88;;;15.70;77.30;;;;;;4916482;29;20087;-75
2023/11/14 12:36:48;;;;;;;5.07;2.00;;;15.70;77.30;;;;;;4917310;29;20068;-76
2023/11/14 12:39:16;;;;;;;5.43;2.33;;;15.70;77.30;;;;;;4900390;29;20070;-75
2023/11/14 12:41:46;;;;;;;4.95;2.20;;;15.70;77.30;;;;;;4900486;29;20545;-75
2023/11/14 12:44:13;;;;;;;3.70;1.83;;;15.70;77.30;;;;;;4915951;29;20508;-75